Time;durP1;ratioP1;P1;durP2;ratioP2;P2;SDS_P1;SDS_P2;PMS_P1;PMS_P2;Temp;Humidity;BMP_temperature;BMP_pressure;BME280_temperature;BME280_humidity;BME280_pressure;Samples;Min_cycle;Max_cycle;Signal;HPM_P1;HPM_P2
2023/11/14 00:00:59;;;;;;;21.27;4.22;;;;;;;8.09;85.63;97364.75;5080612;28;20453;-81
2023/11/14 00:03:28;;;;;;;23.15;6.28;;;;;;;7.93;85.84;97344.59;5086733;28;20038;-80
2023/11/14 00:05:54;;;;;;;21.70;5.65;;;;;;;7.92;86.20;97350.16;5087525;28;20028;-81
2023/11/14 00:08:20;;;;;;;17.08;4.65;;;;;;;7.96;86.78;97335.28;5081761;28;20029;-81
2023/11/14 00:10:46;;;;;;;22.83;5.72;;;;;;;8.11;86.22;97364.47;5053117;28;20039;-81
2023/11/14 00:13:12;;;;;;;22.67;4.50;;;;;;;8.01;85.88;97359.19;5074226;28;20032;-81
2023/11/14 00:15:37;;;;;;;13.82;4.00;;;;;;;8.13;85.49;97359.69;5084059;28;20074;-80
2023/11/14 00:18:03;;;;;;;17.50;4.10;;;;;;;8.06;86.60;97362.63;5080139;28;20136;-80
2023/11/14 00:20:28;;;;;;;18.70;4.50;;;;;;;8.08;85.73;97371.13;5077174;28;20036;-80
2023/11/14 00:22:54;;;;;;;15.00;3.92;;;;;;;8.06;85.49;97370.59;5079196;28;20024;-80
2023/11/14 00:25:19;;;;;;;29.17;5.00;;;;;;;8.04;85.93;97375.38;5084383;28;20119;-80
2023/11/14 00:27:45;;;;;;;16.52;4.28;;;;;;;8.08;85.04;97368.47;5065942;28;20460;-81
2023/11/14 00:30:10;;;;;;;20.35;4.35;;;;;;;8.19;85.37;97383.34;5086274;28;20024;-80
2023/11/14 00:32:36;;;;;;;12.35;3.85;;;;;;;8.12;85.38;97371.41;5075506;28;20070;-81
2023/11/14 00:35:01;;;;;;;18.52;4.80;;;;;;;8.13;85.20;97365.00;5070441;28;20040;-80
2023/11/14 00:37:28;;;;;;;21.38;4.68;;;;;;;8.07;85.71;97360.78;5082599;28;20208;-80
2023/11/14 00:39:54;;;;;;;19.98;6.20;;;;;;;8.17;85.26;97366.06;5078461;28;20484;-80
2023/11/14 00:42:19;;;;;;;21.88;5.30;;;;;;;8.21;84.36;97351.19;5084304;28;20033;-81
2023/11/14 00:44:44;;;;;;;17.30;3.85;;;;;;;8.25;84.61;97374.34;5084043;28;20053;-81
2023/11/14 00:47:10;;;;;;;23.98;5.25;;;;;;;8.22;84.06;97369.53;5090088;28;20032;-81
2023/11/14 00:49:35;;;;;;;7.82;3.15;;;;;;;8.23;84.58;97388.94;5085590;28;20828;-80
2023/11/14 00:52:01;;;;;;;22.23;4.88;;;;;;;8.32;84.28;97382.81;5072757;28;20067;-80
2023/11/14 00:54:27;;;;;;;23.33;4.32;;;;;;;8.32;84.27;97381.22;5088260;28;20047;-81
2023/11/14 00:56:53;;;;;;;30.45;5.43;;;;;;;8.37;84.52;97376.69;5084099;28;20167;-81
2023/11/14 00:59:20;;;;;;;21.60;5.40;;;;;;;8.16;84.34;97359.97;5089043;28;20039;-80
2023/11/14 01:01:45;;;;;;;13.88;4.35;;;;;;;8.32;84.16;97361.53;5075471;28;20024;-80
2023/11/14 01:04:12;;;;;;;28.60;5.22;;;;;;;8.39;84.09;97371.13;5054571;28;20581;-80
2023/11/14 01:06:37;;;;;;;16.95;4.82;;;;;;;8.48;83.38;97383.56;5093934;28;20020;-80
2023/11/14 01:09:03;;;;;;;13.88;4.03;;;;;;;8.37;84.35;97379.34;5087852;28;20036;-80
2023/11/14 01:11:28;;;;;;;24.08;5.95;;;;;;;8.46;84.13;97396.34;5082186;28;20053;-80
2023/11/14 01:13:54;;;;;;;17.90;5.30;;;;;;;8.36;84.46;97369.78;5087806;28;20043;-80
2023/11/14 01:16:20;;;;;;;18.33;3.65;;;;;;;8.44;84.01;97385.19;5084186;28;20032;-80
2023/11/14 01:18:45;;;;;;;21.55;4.45;;;;;;;8.40;84.16;97400.09;5086261;28;20067;-80
2023/11/14 01:21:16;;;;;;;18.63;4.55;;;;;;;8.46;84.77;97400.84;5080196;28;20047;-80
2023/11/14 01:23:41;;;;;;;22.25;4.00;;;;;;;8.35;84.60;97386.78;5085069;28;20123;-80
2023/11/14 01:26:07;;;;;;;17.88;4.38;;;;;;;8.37;84.66;97382.00;5081647;28;20509;-81
2023/11/14 01:28:32;;;;;;;15.63;3.80;;;;;;;8.36;84.70;97395.56;5088206;28;20162;-81
2023/11/14 01:30:58;;;;;;;24.75;5.47;;;;;;;8.19;85.45;97386.00;5068177;28;20408;-81
2023/11/14 01:33:23;;;;;;;17.27;4.38;;;;;;;8.24;85.58;97404.59;5086985;28;20056;-81
2023/11/14 01:35:48;;;;;;;19.13;5.15;;;;;;;8.16;86.18;97396.38;5072315;28;20032;-81
2023/11/14 01:38:14;;;;;;;16.27;3.70;;;;;;;8.26;86.55;97404.34;5070054;28;20044;-81
2023/11/14 01:40:50;;;;;;;23.50;4.50;;;;;;;8.17;86.40;97395.28;5087409;28;20028;-81
2023/11/14 01:43:16;;;;;;;22.48;4.65;;;;;;;8.18;86.29;97389.72;5089473;28;20032;-80
2023/11/14 01:45:41;;;;;;;15.43;4.13;;;;;;;8.20;86.05;97389.44;5086571;28;20376;-80
2023/11/14 01:48:07;;;;;;;17.92;4.75;;;;;;;8.18;86.33;97388.94;5087266;28;20040;-80
2023/11/14 01:50:33;;;;;;;24.33;5.05;;;;;;;8.20;85.83;97381.47;5080342;28;20396;-81
2023/11/14 01:52:59;;;;;;;30.42;4.30;;;;;;;8.17;85.80;97392.63;5063892;28;20094;-81
2023/11/14 01:55:25;;;;;;;16.67;3.78;;;;;;;8.19;86.12;97378.03;5070595;28;20060;-81
2023/11/14 01:57:53;;;;;;;20.02;5.45;;;;;;;8.18;86.53;97388.94;5068342;28;20036;-81
2023/11/14 02:00:19;;;;;;;21.20;4.78;;;;;;;8.19;86.29;97393.97;5060207;28;20070;-81
2023/11/14 02:02:45;;;;;;;23.10;4.32;;;;;;;8.16;86.68;97386.53;5087250;28;20032;-81
2023/11/14 02:05:11;;;;;;;27.08;5.82;;;;;;;8.25;84.86;97389.44;5082624;28;20030;-81
2023/11/14 02:07:37;;;;;;;30.05;6.07;;;;;;;8.23;86.00;97378.28;5080823;28;20472;-81
2023/11/14 02:10:04;;;;;;;22.27;4.88;;;;;;;8.33;85.66;97380.94;5074849;28;20036;-81
2023/11/14 02:12:29;;;;;;;38.58;7.20;;;;;;;8.25;85.12;97362.88;5076231;28;20029;-81
2023/11/14 02:14:55;;;;;;;16.65;3.95;;;;;;;8.23;85.42;97354.38;5088437;28;20530;-81
2023/11/14 02:17:20;;;;;;;16.77;4.05;;;;;;;8.32;84.38;97363.44;5070319;28;20032;-81
2023/11/14 02:19:45;;;;;;;15.30;3.97;;;;;;;8.37;83.94;97373.22;5057067;28;20119;-81
2023/11/14 02:22:12;;;;;;;21.33;4.65;;;;;;;8.34;84.17;97358.63;5086003;28;20024;-81
2023/11/14 02:24:51;;;;;;;19.30;4.57;;;;;;;8.26;84.23;97348.53;5081867;28;20052;-81
2023/11/14 02:27:17;;;;;;;22.83;4.82;;;;;;;8.29;84.61;97348.00;5082100;28;20526;-81
2023/11/14 02:29:43;;;;;;;23.80;5.32;;;;;;;8.34;85.23;97361.28;5082806;28;20034;-81
2023/11/14 02:32:08;;;;;;;21.25;4.60;;;;;;;8.43;84.41;97348.25;5068656;28;20039;-80
2023/11/14 02:34:35;;;;;;;18.60;4.82;;;;;;;8.33;84.06;97346.41;5079825;28;20034;-81
2023/11/14 02:37:01;;;;;;;23.27;4.35;;;;;;;8.29;84.23;97338.19;5070020;28;20033;-80
2023/11/14 02:39:28;;;;;;;20.45;4.65;;;;;;;8.32;84.40;97357.31;5077796;28;20527;-80
2023/11/14 02:41:54;;;;;;;15.07;3.55;;;;;;;8.29;84.71;97334.72;5056780;28;20024;-80
2023/11/14 02:44:19;;;;;;;31.17;4.68;;;;;;;8.33;83.56;97349.06;5080586;28;20444;-80
2023/11/14 02:46:45;;;;;;;23.45;6.35;;;;;;;8.32;83.73;97344.81;5069757;28;20031;-80
2023/11/14 02:49:16;;;;;;;16.45;3.78;;;;;;;8.32;83.84;97344.00;5078328;28;20119;-80
2023/11/14 02:51:42;;;;;;;14.43;3.75;;;;;;;8.29;83.58;97345.34;5086634;28;20087;-80
2023/11/14 02:54:07;;;;;;;21.35;5.20;;;;;;;8.24;83.72;97332.84;5067201;28;20111;-80
2023/11/14 02:56:32;;;;;;;19.73;4.00;;;;;;;8.26;84.00;97348.53;5081863;28;20058;-80
2023/11/14 02:59:00;;;;;;;22.48;5.20;;;;;;;8.27;82.96;97352.78;5070167;28;20510;-80
2023/11/14 03:01:26;;;;;;;17.83;4.45;;;;;;;8.19;83.68;97334.72;5075214;28;20035;-80
2023/11/14 03:03:51;;;;;;;17.50;3.80;;;;;;;8.15;83.70;97354.91;5091110;28;20032;-80
2023/11/14 03:06:17;;;;;;;28.50;6.25;;;;;;;8.17;83.61;97350.91;5071542;28;20050;-81
2023/11/14 03:08:42;;;;;;;22.30;5.88;;;;;;;8.22;83.69;97371.38;5084563;28;20040;-80
2023/11/14 03:11:08;;;;;;;17.17;4.80;;;;;;;8.15;84.09;97358.38;5084040;28;20138;-80
2023/11/14 03:13:33;;;;;;;28.67;7.53;;;;;;;8.22;84.18;97377.50;5074523;28;20023;-79
2023/11/14 03:15:59;;;;;;;16.42;3.88;;;;;;;8.09;85.64;97385.22;5085093;28;20476;-80
2023/11/14 03:18:24;;;;;;;27.15;5.28;;;;;;;8.22;85.79;97387.31;5084034;28;20032;-80
2023/11/14 03:20:49;;;;;;;15.25;4.13;;;;;;;8.22;84.74;97400.59;5081942;28;20109;-80
2023/11/14 03:23:15;;;;;;;24.90;4.78;;;;;;;8.16;85.29;97396.38;5080846;28;20032;-79
2023/11/14 03:25:40;;;;;;;21.90;5.25;;;;;;;8.21;84.96;97399.03;5084635;28;20035;-80
2023/11/14 03:28:05;;;;;;;21.88;5.57;;;;;;;8.18;85.35;97399.56;5072319;28;20066;-80
2023/11/14 03:30:32;;;;;;;21.52;4.32;;;;;;;8.24;85.17;97396.63;5084837;28;20056;-80
2023/11/14 03:32:58;;;;;;;24.35;5.05;;;;;;;8.17;85.38;97403.25;5079290;28;20373;-80
2023/11/14 03:35:23;;;;;;;22.55;5.03;;;;;;;8.20;85.45;97398.22;5088252;28;20034;-80
2023/11/14 03:37:48;;;;;;;17.95;4.63;;;;;;;8.19;85.64;97395.84;5085404;28;20066;-80
2023/11/14 03:40:14;;;;;;;16.95;3.88;;;;;;;8.16;85.56;97397.19;5084809;28;20059;-80
2023/11/14 03:42:39;;;;;;;23.80;5.20;;;;;;;8.23;85.62;97403.00;5070906;28;20065;-79
2023/11/14 03:45:05;;;;;;;22.65;4.35;;;;;;;8.26;84.74;97407.81;5088064;28;20023;-79
2023/11/14 03:47:31;;;;;;;23.70;5.35;;;;;;;8.22;84.79;97395.28;5078457;28;20040;-79
2023/11/14 03:49:56;;;;;;;22.25;4.95;;;;;;;8.25;85.02;97408.88;5068134;28;20491;-80
2023/11/14 03:52:21;;;;;;;18.25;4.38;;;;;;;8.18;84.96;97415.50;5085952;28;20075;-79
2023/11/14 03:54:47;;;;;;;22.63;4.30;;;;;;;8.16;84.95;97388.41;5083719;28;20025;-79
2023/11/14 03:57:12;;;;;;;16.30;3.88;;;;;;;8.21;85.30;97418.41;5082415;28;20048;-79
2023/11/14 03:59:37;;;;;;;18.48;4.45;;;;;;;8.15;85.71;97410.72;5086115;28;20020;-79
2023/11/14 04:02:03;;;;;;;15.52;4.85;;;;;;;8.04;86.27;97420.56;5081251;28;20072;-79
2023/11/14 04:04:29;;;;;;;23.83;4.43;;;;;;;8.08;87.06;97408.31;5070587;28;20515;-79
2023/11/14 04:06:55;;;;;;;23.60;4.53;;;;;;;8.04;87.39;97407.28;5082143;28;20032;-80
2023/11/14 04:09:20;;;;;;;19.88;5.72;;;;;;;8.05;87.55;97416.03;5082467;28;20051;-80
2023/11/14 04:11:47;;;;;;;17.52;3.85;;;;;;;8.00;88.07;97387.63;5074773;28;20412;-80
2023/11/14 04:14:13;;;;;;;14.85;4.13;;;;;;;8.05;88.08;97405.41;5081725;28;20109;-80
2023/11/14 04:16:38;;;;;;;28.38;4.88;;;;;;;7.97;89.12;97398.00;5078291;28;20024;-80
2023/11/14 04:19:04;;;;;;;16.95;4.85;;;;;;;8.00;88.98;97398.25;5066503;28;20024;-80
2023/11/14 04:21:29;;;;;;;27.23;4.75;;;;;;;7.95;89.68;97402.78;5067906;28;20036;-80
2023/11/14 04:23:55;;;;;;;21.45;5.85;;;;;;;8.05;88.80;97394.78;5068487;28;20028;-80
2023/11/14 04:26:22;;;;;;;22.85;5.90;;;;;;;8.02;89.04;97411.25;5061378;28;20819;-80
2023/11/14 04:28:48;;;;;;;18.10;3.40;;;;;;;7.94;89.57;97409.94;5078377;28;20131;-80
2023/11/14 04:31:13;;;;;;;20.95;4.28;;;;;;;7.94;89.77;97419.75;5081676;28;20431;-80
2023/11/14 04:33:39;;;;;;;17.98;4.32;;;;;;;8.01;89.40;97417.66;5079790;28;20035;-80
2023/11/14 04:36:07;;;;;;;20.08;4.55;;;;;;;7.94;89.47;97404.63;5061016;28;20124;-80
2023/11/14 04:38:33;;;;;;;21.75;4.63;;;;;;;7.97;89.09;97412.06;5078359;28;20066;-80
2023/11/14 04:40:58;;;;;;;19.88;5.28;;;;;;;8.02;88.78;97425.34;5081601;28;20024;-80
2023/11/14 04:43:24;;;;;;;30.58;6.07;;;;;;;7.93;89.55;97418.97;5053797;28;20486;-80
2023/11/14 04:45:49;;;;;;;22.73;5.03;;;;;;;8.05;89.13;97432.00;5069879;28;20180;-80
2023/11/14 04:48:15;;;;;;;16.60;4.22;;;;;;;8.11;88.98;97430.91;5081037;28;20085;-80
2023/11/14 04:50:40;;;;;;;22.75;7.00;;;;;;;8.06;89.25;97426.41;5084940;28;20058;-80
2023/11/14 04:53:05;;;;;;;24.73;4.55;;;;;;;8.15;88.84;97442.59;5078754;28;20436;-80
2023/11/14 04:55:31;;;;;;;25.02;5.35;;;;;;;8.08;90.31;97436.78;5078145;28;20036;-81
2023/11/14 04:57:56;;;;;;;20.95;6.15;;;;;;;8.11;90.38;97428.25;5061650;28;20043;-81
2023/11/14 05:00:21;;;;;;;32.83;5.32;;;;;;;8.08;90.84;97442.09;5072073;28;20940;-81
2023/11/14 05:02:47;;;;;;;23.13;6.13;;;;;;;8.04;90.67;97428.53;5073491;28;20695;-80
2023/11/14 05:05:12;;;;;;;28.27;5.07;;;;;;;7.99;91.88;97439.19;5067885;28;20506;-80
2023/11/14 05:07:39;;;;;;;21.00;4.70;;;;;;;8.09;91.21;97444.47;5088148;28;20043;-81
2023/11/14 05:10:05;;;;;;;25.67;5.70;;;;;;;8.01;91.68;97445.03;5080982;28;20031;-80
2023/11/14 05:12:30;;;;;;;25.33;5.07;;;;;;;8.03;91.42;97434.13;5061164;28;20059;-80
2023/11/14 05:14:56;;;;;;;21.52;6.95;;;;;;;8.08;91.44;97444.75;5076265;28;20467;-80
2023/11/14 05:17:21;;;;;;;23.13;5.50;;;;;;;8.02;91.51;97435.97;5073849;28;20043;-80
2023/11/14 05:19:47;;;;;;;22.75;5.60;;;;;;;8.06;91.17;97430.94;5075655;28;20487;-80
2023/11/14 05:22:12;;;;;;;28.33;4.93;;;;;;;8.08;91.45;97431.47;5067138;28;22096;-81
2023/11/14 05:24:39;;;;;;;21.95;5.38;;;;;;;8.08;90.83;97439.44;5061045;28;20412;-81
2023/11/14 05:27:05;;;;;;;22.30;5.40;;;;;;;8.04;91.24;97441.81;5081056;28;20031;-81
2023/11/14 05:29:30;;;;;;;19.75;4.90;;;;;;;8.04;91.33;97441.00;5069361;28;20451;-81
2023/11/14 05:31:55;;;;;;;20.10;4.78;;;;;;;8.16;91.23;97433.56;5085207;28;20040;-81
2023/11/14 05:34:21;;;;;;;20.17;4.88;;;;;;;8.09;91.32;97433.84;5072332;28;20141;-81
2023/11/14 05:36:46;;;;;;;22.83;6.32;;;;;;;8.08;91.12;97428.81;5074025;28;20036;-80
2023/11/14 05:39:12;;;;;;;20.70;5.43;;;;;;;8.05;91.30;97430.13;5085055;28;20115;-80
2023/11/14 05:41:39;;;;;;;21.50;5.50;;;;;;;8.04;90.90;97425.88;5052529;28;20033;-81
2023/11/14 05:44:05;;;;;;;28.50;5.32;;;;;;;8.01;90.82;97422.97;5068806;28;20380;-81
2023/11/14 05:46:30;;;;;;;23.98;6.28;;;;;;;8.03;91.46;97418.97;5072505;28;20051;-81
2023/11/14 05:48:55;;;;;;;24.08;5.70;;;;;;;8.07;90.96;97430.66;5081862;28;20078;-81
2023/11/14 05:51:21;;;;;;;26.77;5.25;;;;;;;7.98;91.40;97420.81;5092564;28;20028;-80
2023/11/14 05:53:46;;;;;;;24.80;6.20;;;;;;;8.06;90.62;97434.38;5099167;28;20034;-82
2023/11/14 05:56:11;;;;;;;38.30;6.43;;;;;;;8.07;91.01;97433.31;5083825;28;20402;-81
2023/11/14 05:58:37;;;;;;;34.47;6.05;;;;;;;8.07;90.49;97435.16;5088340;28;20541;-81
2023/11/14 06:01:03;;;;;;;20.17;5.72;;;;;;;8.02;90.38;97433.31;5088894;28;20091;-81
2023/11/14 06:03:28;;;;;;;28.63;4.32;;;;;;;8.01;90.61;97423.75;5091996;28;20075;-81
2023/11/14 06:05:54;;;;;;;31.67;6.38;;;;;;;8.04;90.32;97433.03;5092276;28;20038;-81
2023/11/14 06:08:19;;;;;;;20.45;5.15;;;;;;;8.05;90.32;97426.66;5092285;28;20035;-81
2023/11/14 06:10:45;;;;;;;21.70;6.47;;;;;;;8.06;90.24;97426.41;5075275;28;20115;-83
2023/11/14 06:13:10;;;;;;;20.90;4.95;;;;;;;7.98;90.47;97410.19;5075300;28;20058;-81
2023/11/14 06:15:35;;;;;;;21.65;4.55;;;;;;;7.98;89.94;97428.78;5092230;28;20036;-81
2023/11/14 06:18:01;;;;;;;34.17;5.90;;;;;;;8.08;90.24;97432.25;5075259;28;20115;-81
2023/11/14 06:20:26;;;;;;;35.60;6.85;;;;;;;8.06;90.35;97433.59;5092059;28;20020;-82
2023/11/14 06:22:51;;;;;;;31.27;6.20;;;;;;;8.05;90.68;97432.78;5091521;28;20068;-83
2023/11/14 06:25:17;;;;;;;23.25;5.32;;;;;;;8.01;90.23;97441.56;5074447;28;20162;-81
2023/11/14 06:27:43;;;;;;;20.30;5.88;;;;;;;8.02;90.67;97451.09;5074987;28;20024;-81
2023/11/14 06:30:11;;;;;;;19.50;5.18;;;;;;;8.07;90.46;97464.41;5075105;28;20032;-81
2023/11/14 06:32:36;;;;;;;27.95;6.40;;;;;;;8.07;90.10;97464.41;5093190;28;20027;-83
2023/11/14 06:35:02;;;;;;;28.60;5.80;;;;;;;7.97;90.34;97440.50;5075366;28;20132;-83
2023/11/14 06:37:28;;;;;;;17.90;4.38;;;;;;;8.03;90.43;97466.81;5092132;28;20032;-81
2023/11/14 06:39:55;;;;;;;27.60;5.85;;;;;;;8.13;90.27;97466.78;5074994;28;20076;-81
2023/11/14 06:42:22;;;;;;;27.67;6.68;;;;;;;7.99;90.53;97449.00;5093390;28;20024;-81
2023/11/14 06:44:47;;;;;;;30.83;5.50;;;;;;;8.07;90.67;97472.38;5092086;28;20024;-81
2023/11/14 06:47:15;;;;;;;26.17;5.35;;;;;;;8.04;90.71;97473.69;5075204;28;20108;-81
2023/11/14 06:49:40;;;;;;;30.17;5.72;;;;;;;8.07;91.41;97477.69;5092128;28;20035;-81
2023/11/14 06:52:06;;;;;;;20.90;5.82;;;;;;;8.05;91.65;97490.44;5094609;28;20028;-81
2023/11/14 06:54:31;;;;;;;27.90;6.25;;;;;;;8.04;91.64;97479.00;5092449;28;20553;-84
2023/11/14 06:56:56;;;;;;;28.10;5.30;;;;;;;8.02;91.82;97490.97;5091784;28;20032;-84
2023/11/14 06:59:22;;;;;;;23.27;5.75;;;;;;;8.03;91.04;97490.72;5089522;28;20058;-81
2023/11/14 07:01:52;;;;;;;22.00;5.13;;;;;;;8.06;91.66;97494.72;5054009;28;20508;-84
2023/11/14 07:04:17;;;;;;;22.25;5.18;;;;;;;8.02;90.96;97496.28;5073521;28;20032;-83
2023/11/14 07:06:43;;;;;;;22.50;6.45;;;;;;;8.06;91.58;97508.00;5091749;28;20025;-83
2023/11/14 07:09:09;;;;;;;27.60;6.05;;;;;;;8.05;91.30;97501.88;5091637;28;20083;-84
2023/11/14 07:11:34;;;;;;;19.58;5.60;;;;;;;8.05;91.72;97504.53;5072859;28;20571;-84
2023/11/14 07:13:59;;;;;;;24.38;6.53;;;;;;;8.06;91.50;97505.34;5069090;28;20028;-84
2023/11/14 07:16:27;;;;;;;35.22;5.82;;;;;;;8.02;92.94;97506.91;5089921;28;20089;-84
2023/11/14 07:18:52;;;;;;;30.58;7.50;;;;;;;7.90;93.16;97490.44;5092089;28;20039;-84
2023/11/14 07:21:18;;;;;;;21.05;5.78;;;;;;;7.94;93.79;97520.72;5092306;28;20569;-83
2023/11/14 07:23:43;;;;;;;31.40;5.93;;;;;;;7.92;93.79;97518.34;5092392;28;20610;-84
2023/11/14 07:26:10;;;;;;;22.90;5.90;;;;;;;7.98;93.26;97524.44;5075980;28;20034;-83
2023/11/14 07:28:36;;;;;;;27.33;5.20;;;;;;;7.95;93.93;97509.03;5092204;28;20103;-83
2023/11/14 07:31:01;;;;;;;21.27;4.65;;;;;;;7.95;93.44;97503.72;5094377;28;20506;-83
2023/11/14 07:33:28;;;;;;;24.50;5.55;;;;;;;7.96;93.42;97510.63;5075723;28;20036;-83
2023/11/14 07:35:53;;;;;;;39.47;6.63;;;;;;;7.93;93.81;97508.50;5075920;28;20034;-84
2023/11/14 07:38:19;;;;;;;36.55;7.28;;;;;;;7.96;93.49;97514.09;5075496;28;20024;-83
2023/11/14 07:40:44;;;;;;;30.73;5.50;;;;;;;7.91;94.11;97513.25;5092588;28;20024;-84
2023/11/14 07:43:09;;;;;;;30.38;4.55;;;;;;;7.94;93.67;97520.72;5075231;28;20027;-84
2023/11/14 07:45:35;;;;;;;17.15;4.72;;;;;;;7.99;94.19;97526.84;5076329;28;20103;-82
2023/11/14 07:48:01;;;;;;;24.30;4.90;;;;;;;8.02;93.79;97520.19;5092445;28;20020;-81
2023/11/14 07:50:26;;;;;;;30.85;7.13;;;;;;;8.01;93.79;97535.34;5092880;28;20032;-84
2023/11/14 07:52:52;;;;;;;24.20;5.25;;;;;;;7.99;93.47;97529.50;5092473;28;20036;-84
2023/11/14 07:55:18;;;;;;;23.70;6.95;;;;;;;8.03;94.02;97535.88;5094229;28;20106;-84
2023/11/14 07:57:43;;;;;;;29.17;4.57;;;;;;;7.98;94.44;97532.41;5091888;28;20378;-84
2023/11/14 08:00:11;;;;;;;27.42;6.57;;;;;;;7.94;94.55;97532.16;5091728;28;20518;-82
2023/11/14 08:02:38;;;;;;;18.77;5.55;;;;;;;7.95;93.89;97548.91;5093575;28;20386;-83
2023/11/14 08:05:03;;;;;;;18.95;4.63;;;;;;;7.93;95.00;97549.13;5093496;28;20107;-82
2023/11/14 08:07:29;;;;;;;31.70;5.18;;;;;;;7.92;95.55;97546.75;5074720;28;20020;-82
2023/11/14 08:09:54;;;;;;;18.70;5.70;;;;;;;7.86;96.08;97539.84;5090908;28;20428;-82
2023/11/14 08:12:20;;;;;;;27.58;5.82;;;;;;;7.96;95.60;97561.09;5092588;28;20016;-82
2023/11/14 08:14:45;;;;;;;25.48;5.75;;;;;;;7.92;95.70;97549.41;5090661;28;20059;-82
2023/11/14 08:17:11;;;;;;;29.95;5.82;;;;;;;7.93;95.81;97553.66;5090660;28;20028;-82
2023/11/14 08:19:36;;;;;;;22.17;6.13;;;;;;;7.91;95.77;97550.44;5090896;28;20032;-82
2023/11/14 08:22:06;;;;;;;26.65;6.03;;;;;;;7.96;95.76;97558.44;5074087;28;20036;-81
2023/11/14 08:24:33;;;;;;;21.25;4.75;;;;;;;7.97;95.13;97565.38;5074246;28;20024;-82
2023/11/14 08:26:58;;;;;;;34.25;5.43;;;;;;;7.98;95.52;97580.22;5090717;28;20108;-82
2023/11/14 08:29:24;;;;;;;18.50;2.97;;;;;;;7.90;95.88;97552.34;5073728;28;20123;-82
2023/11/14 08:31:49;;;;;;;15.02;4.60;;;;;;;7.98;95.93;97551.81;5092028;28;20103;-82
2023/11/14 08:34:15;;;;;;;28.75;5.13;;;;;;;7.96;96.35;97531.88;5091719;28;20024;-82
2023/11/14 08:36:41;;;;;;;14.27;4.55;;;;;;;7.98;96.21;97532.41;5090857;28;20089;-81
2023/11/14 08:39:09;;;;;;;31.92;5.53;;;;;;;8.01;95.91;97534.56;5092109;28;20411;-81
2023/11/14 08:41:35;;;;;;;20.40;5.63;;;;;;;8.01;95.67;97519.41;5092353;28;20107;-82
2023/11/14 08:44:00;;;;;;;22.30;5.32;;;;;;;8.03;96.60;97535.09;5090638;28;20062;-81
2023/11/14 08:46:26;;;;;;;30.40;6.25;;;;;;;8.09;96.06;97534.03;5073603;28;20028;-82
2023/11/14 08:48:52;;;;;;;31.77;5.65;;;;;;;8.07;95.86;97521.00;5094359;28;20036;-82
2023/11/14 08:51:18;;;;;;;39.53;6.95;;;;;;;8.09;95.83;97516.22;5077684;28;20024;-81
2023/11/14 08:53:43;;;;;;;21.55;5.72;;;;;;;8.28;95.71;97524.47;5077196;28;20024;-82
2023/11/14 08:56:09;;;;;;;21.73;5.88;;;;;;;8.19;96.29;97526.06;5095387;28;20495;-81
2023/11/14 08:58:36;;;;;;;21.58;5.80;;;;;;;8.23;95.77;97522.59;5094138;28;20028;-82
2023/11/14 09:01:02;;;;;;;20.45;4.93;;;;;;;8.22;95.33;97520.22;5077961;28;20039;-81
2023/11/14 09:03:27;;;;;;;15.45;4.25;;;;;;;8.17;95.30;97523.66;5095155;28;20032;-81
2023/11/14 09:05:52;;;;;;;21.77;5.30;;;;;;;8.24;94.12;97526.06;5094956;28;20034;-82
2023/11/14 09:08:18;;;;;;;19.48;5.93;;;;;;;8.25;94.70;97531.16;5093586;28;20054;-81
2023/11/14 09:10:44;;;;;;;22.58;5.75;;;;;;;8.21;94.20;97537.22;5094256;28;20111;-81
2023/11/14 09:13:12;;;;;;;25.58;5.35;;;;;;;8.25;94.01;97528.50;5093214;28;20119;-81
2023/11/14 09:15:38;;;;;;;30.08;7.97;;;;;;;8.38;93.51;97544.97;5093785;28;20027;-81
2023/11/14 09:18:04;;;;;;;27.08;5.30;;;;;;;8.41;94.01;97531.94;5093454;28;20024;-81
2023/11/14 09:20:30;;;;;;;26.70;5.38;;;;;;;8.44;93.57;97546.56;5094113;28;20035;-81
2023/11/14 09:22:56;;;;;;;17.55;6.05;;;;;;;8.52;93.82;97552.13;5078231;28;20023;-81
2023/11/14 09:25:22;;;;;;;25.15;3.85;;;;;;;8.47;93.23;97538.88;5100237;28;20039;-82
2023/11/14 09:27:47;;;;;;;31.48;7.28;;;;;;;8.48;93.49;97543.09;5092850;28;20040;-81
2023/11/14 09:30:14;;;;;;;18.98;5.05;;;;;;;8.41;92.85;97539.13;5092976;28;20536;-81
2023/11/14 09:32:40;;;;;;;26.95;5.10;;;;;;;8.40;92.74;97546.31;5099837;28;20024;-81
2023/11/14 09:35:05;;;;;;;21.77;5.13;;;;;;;8.45;92.64;97551.63;5094111;28;20030;-80
2023/11/14 09:37:31;;;;;;;21.25;5.13;;;;;;;8.48;92.59;97558.25;5062418;28;20470;-80
2023/11/14 09:39:56;;;;;;;20.80;5.55;;;;;;;8.50;92.49;97551.59;5093172;28;20036;-80
2023/11/14 09:42:22;;;;;;;30.08;6.93;;;;;;;8.41;92.23;97541.78;5093130;28;20127;-80
2023/11/14 09:44:48;;;;;;;18.85;5.35;;;;;;;8.49;92.21;97541.25;5076189;28;20119;-80
2023/11/14 09:47:15;;;;;;;25.95;5.93;;;;;;;8.47;91.94;97538.88;5092343;28;20531;-80
2023/11/14 09:49:42;;;;;;;24.92;4.95;;;;;;;8.48;92.07;97553.72;5075764;28;20032;-80
2023/11/14 09:52:11;;;;;;;28.33;5.72;;;;;;;8.44;92.08;97547.34;5092514;28;20035;-80
2023/11/14 09:54:38;;;;;;;18.02;4.72;;;;;;;8.43;92.59;97559.03;5072676;28;20504;-80
2023/11/14 09:57:05;;;;;;;27.50;4.45;;;;;;;8.29;92.49;97536.72;5092497;28;20070;-80
2023/11/14 09:59:33;;;;;;;28.58;6.13;;;;;;;8.49;92.59;97563.31;5092375;28;20491;-80
2023/11/14 10:01:59;;;;;;;13.63;4.60;;;;;;;8.52;92.17;97559.34;5092217;28;20046;-80
2023/11/14 10:04:25;;;;;;;20.83;5.07;;;;;;;8.44;91.97;97550.03;5094039;28;20020;-80
2023/11/14 10:06:51;;;;;;;21.85;5.95;;;;;;;8.54;92.02;97567.84;5093696;28;20482;-80
2023/11/14 10:09:18;;;;;;;17.00;5.68;;;;;;;8.55;91.75;97569.44;5094662;28;20032;-80
2023/11/14 10:11:46;;;;;;;31.90;5.70;;;;;;;8.54;91.82;97555.31;5093386;28;20401;-80
2023/11/14 10:14:13;;;;;;;26.40;7.53;;;;;;;8.52;91.68;97548.69;5092858;28;20101;-81
2023/11/14 10:16:39;;;;;;;26.00;5.55;;;;;;;8.54;91.45;97552.66;5085528;28;20066;-80
2023/11/14 10:19:14;;;;;;;19.70;5.65;;;;;;;8.51;91.36;97550.56;5094315;28;20052;-80
2023/11/14 10:21:41;;;;;;;23.77;6.45;;;;;;;8.56;91.44;97547.88;5093571;28;20377;-81
2023/11/14 10:24:13;;;;;;;27.02;5.63;;;;;;;8.56;91.10;97536.47;5097071;28;20044;-80
2023/11/14 10:26:52;;;;;;;21.67;6.90;;;;;;;8.65;90.82;97537.53;5085492;28;20059;-80
2023/11/14 10:29:22;;;;;;;22.38;5.32;;;;;;;8.63;90.95;97543.09;5093785;28;20395;-80
2023/11/14 10:31:51;;;;;;;25.27;6.07;;;;;;;8.65;91.26;97548.94;5091315;28;20081;-80
2023/11/14 10:34:28;;;;;;;22.33;5.25;;;;;;;8.70;91.26;97543.63;5088479;28;20070;-80
2023/11/14 10:36:55;;;;;;;22.58;5.63;;;;;;;8.70;90.78;97540.16;5094118;28;20690;-80
2023/11/14 10:39:22;;;;;;;21.23;5.30;;;;;;;8.73;91.39;97540.44;5092200;28;20024;-80
2023/11/14 10:41:49;;;;;;;27.95;5.97;;;;;;;8.74;90.28;97535.88;5091846;28;20024;-80
2023/11/14 10:44:15;;;;;;;35.13;6.10;;;;;;;8.84;90.75;97555.31;5092910;28;20028;-80
2023/11/14 10:46:48;;;;;;;25.55;6.15;;;;;;;8.85;89.82;97548.91;5092244;28;20111;-80
2023/11/14 10:49:14;;;;;;;28.10;5.30;;;;;;;8.83;89.83;97556.38;5091426;28;20438;-80
2023/11/14 10:51:41;;;;;;;24.08;5.80;;;;;;;8.78;89.96;97571.56;5092019;28;20028;-80
2023/11/14 10:54:07;;;;;;;27.48;6.78;;;;;;;8.76;90.04;97571.00;5056028;28;20119;-80
2023/11/14 10:56:37;;;;;;;22.77;5.93;;;;;;;8.79;90.34;97584.59;5090480;28;20118;-80
2023/11/14 10:59:10;;;;;;;28.70;5.70;;;;;;;8.75;90.44;97564.09;5073636;28;20056;-80
2023/11/14 11:01:46;;;;;;;18.75;5.78;;;;;;;8.82;90.25;97562.75;5088348;28;20482;-80
2023/11/14 11:04:20;;;;;;;20.13;5.15;;;;;;;8.88;90.87;97569.69;5097729;28;20055;-80
2023/11/14 11:06:48;;;;;;;22.83;4.22;;;;;;;8.90;90.25;97562.22;5063155;28;20502;-80
2023/11/14 11:09:15;;;;;;;19.35;4.90;;;;;;;8.88;90.28;97567.00;5090077;28;20799;-80
2023/11/14 11:11:44;;;;;;;21.50;5.60;;;;;;;8.87;90.12;97562.75;5072766;28;20020;-80
2023/11/14 11:14:13;;;;;;;20.10;4.82;;;;;;;8.88;90.58;97575.00;5091559;28;20452;-80
2023/11/14 11:16:50;;;;;;;19.98;4.38;;;;;;;8.85;90.38;97580.03;5090787;28;20024;-80
2023/11/14 11:19:21;;;;;;;17.38;5.82;;;;;;;8.81;91.36;97585.09;5074495;28;20131;-80
2023/11/14 11:22:01;;;;;;;17.38;4.78;;;;;;;8.77;91.74;97573.41;5091176;28;20457;-82
2023/11/14 11:24:29;;;;;;;17.90;5.25;;;;;;;8.73;91.82;97572.34;5089774;28;20055;-82
2023/11/14 11:27:21;;;;;;;29.63;5.53;;;;;;;8.61;93.02;97555.06;5090099;28;20027;-82
2023/11/14 11:29:54;;;;;;;29.77;4.95;;;;;;;8.64;93.25;97533.25;5073747;28;20432;-82